sensor_id;sensor_type;location;lat;lon;timestamp;temperature;humidity
32895;DHT22;19251;49.484;8.260;2023-04-01T00:07:52;13.90;21.00
32895;DHT22;19251;49.484;8.260;2023-04-01T00:12:54;13.90;20.90
32895;DHT22;19251;49.484;8.260;2023-04-01T00:17:57;14.00;21.00
32895;DHT22;19251;49.484;8.260;2023-04-01T00:22:59;14.00;21.00
32895;DHT22;19251;49.484;8.260;2023-04-01T00:28:01;14.00;21.00
32895;DHT22;19251;49.484;8.260;2023-04-01T00:33:03;14.00;21.00
32895;DHT22;19251;49.484;8.260;2023-04-01T00:38:07;14.00;20.80
32895;DHT22;19251;49.484;8.260;2023-04-01T00:43:10;14.00;20.90
32895;DHT22;19251;49.484;8.260;2023-04-01T00:48:15;14.00;20.90
32895;DHT22;19251;49.484;8.260;2023-04-01T00:53:18;14.00;20.80
32895;DHT22;19251;49.484;8.260;2023-04-01T00:58:21;14.00;20.80
32895;DHT22;19251;49.484;8.260;2023-04-01T01:03:25;14.00;20.80
32895;DHT22;19251;49.484;8.260;2023-04-01T01:13:56;14.00;20.70
32895;DHT22;19251;49.484;8.260;2023-04-01T01:19:19;13.90;20.60
32895;DHT22;19251;49.484;8.260;2023-04-01T01:24:40;14.00;20.80
32895;DHT22;19251;49.484;8.260;2023-04-01T01:29:48;14.00;20.80
32895;DHT22;19251;49.484;8.260;2023-04-01T01:40:13;13.90;20.60
32895;DHT22;19251;49.484;8.260;2023-04-01T01:45:19;14.00;20.70
32895;DHT22;19251;49.484;8.260;2023-04-01T01:50:23;14.00;20.70
32895;DHT22;19251;49.484;8.260;2023-04-01T01:55:35;14.00;20.80
32895;DHT22;19251;49.484;8.260;2023-04-01T02:00:38;14.00;20.90
32895;DHT22;19251;49.484;8.260;2023-04-01T02:05:41;13.90;21.00
32895;DHT22;19251;49.484;8.260;2023-04-01T02:10:46;14.00;21.30
32895;DHT22;19251;49.484;8.260;2023-04-01T02:15:52;13.90;21.30
32895;DHT22;19251;49.484;8.260;2023-04-01T02:20:57;13.90;21.80
32895;DHT22;19251;49.484;8.260;2023-04-01T02:26:04;14.00;22.00
32895;DHT22;19251;49.484;8.260;2023-04-01T02:31:08;13.80;22.00
32895;DHT22;19251;49.484;8.260;2023-04-01T02:36:14;13.80;22.10
32895;DHT22;19251;49.484;8.260;2023-04-01T02:41:16;13.70;22.10
32895;DHT22;19251;49.484;8.260;2023-04-01T02:46:19;13.60;22.10
32895;DHT22;19251;49.484;8.260;2023-04-01T02:51:21;13.60;22.10
32895;DHT22;19251;49.484;8.260;2023-04-01T02:56:23;13.60;22.10
32895;DHT22;19251;49.484;8.260;2023-04-01T03:01:25;13.70;22.20
32895;DHT22;19251;49.484;8.260;2023-04-01T03:06:27;13.60;22.10
32895;DHT22;19251;49.484;8.260;2023-04-01T03:11:29;13.60;22.20
32895;DHT22;19251;49.484;8.260;2023-04-01T03:16:39;13.60;22.20
32895;DHT22;19251;49.484;8.260;2023-04-01T03:21:41;13.60;22.40
32895;DHT22;19251;49.484;8.260;2023-04-01T03:26:43;13.60;22.40
32895;DHT22;19251;49.484;8.260;2023-04-01T03:31:46;13.70;22.60
32895;DHT22;19251;49.484;8.260;2023-04-01T03:36:48;13.60;22.50
32895;DHT22;19251;49.484;8.260;2023-04-01T03:41:52;13.60;22.60
32895;DHT22;19251;49.484;8.260;2023-04-01T03:46:54;13.60;22.50
32895;DHT22;19251;49.484;8.260;2023-04-01T03:51:56;13.60;22.50
32895;DHT22;19251;49.484;8.260;2023-04-01T03:56:59;13.50;22.50
32895;DHT22;19251;49.484;8.260;2023-04-01T04:02:01;13.60;22.70
32895;DHT22;19251;49.484;8.260;2023-04-01T04:07:07;13.60;22.70
32895;DHT22;19251;49.484;8.260;2023-04-01T04:12:11;13.60;22.70
32895;DHT22;19251;49.484;8.260;2023-04-01T04:17:13;13.60;22.70
32895;DHT22;19251;49.484;8.260;2023-04-01T04:22:20;13.60;22.60
32895;DHT22;19251;49.484;8.260;2023-04-01T04:27:23;13.60;22.50
32895;DHT22;19251;49.484;8.260;2023-04-01T04:32:26;13.60;22.50
32895;DHT22;19251;49.484;8.260;2023-04-01T04:37:31;13.60;22.40
32895;DHT22;19251;49.484;8.260;2023-04-01T04:42:36;13.50;22.40
32895;DHT22;19251;49.484;8.260;2023-04-01T04:47:39;13.70;22.40
32895;DHT22;19251;49.484;8.260;2023-04-01T04:52:41;13.70;22.40
32895;DHT22;19251;49.484;8.260;2023-04-01T04:57:44;13.90;22.40
32895;DHT22;19251;49.484;8.260;2023-04-01T05:02:46;13.70;22.30
32895;DHT22;19251;49.484;8.260;2023-04-01T05:07:49;13.80;22.50
32895;DHT22;19251;49.484;8.260;2023-04-01T05:12:51;13.80;22.60
32895;DHT22;19251;49.484;8.260;2023-04-01T05:17:55;13.80;22.60
32895;DHT22;19251;49.484;8.260;2023-04-01T05:22:58;13.80;22.70
32895;DHT22;19251;49.484;8.260;2023-04-01T05:28:01;13.70;22.70
32895;DHT22;19251;49.484;8.260;2023-04-01T05:33:04;13.70;22.90
32895;DHT22;19251;49.484;8.260;2023-04-01T05:38:06;13.70;23.10
32895;DHT22;19251;49.484;8.260;2023-04-01T05:43:09;13.60;23.30
32895;DHT22;19251;49.484;8.260;2023-04-01T05:48:11;13.60;23.40
32895;DHT22;19251;49.484;8.260;2023-04-01T05:53:14;13.50;23.30
32895;DHT22;19251;49.484;8.260;2023-04-01T05:58:17;13.60;23.40
32895;DHT22;19251;49.484;8.260;2023-04-01T06:03:20;13.50;23.40
32895;DHT22;19251;49.484;8.260;2023-04-01T06:08:23;13.60;23.50
32895;DHT22;19251;49.484;8.260;2023-04-01T06:23:54;13.60;23.40
32895;DHT22;19251;49.484;8.260;2023-04-01T06:40:02;13.70;23.50
32895;DHT22;19251;49.484;8.260;2023-04-01T06:56:11;13.80;23.80
32895;DHT22;19251;49.484;8.260;2023-04-01T07:01:18;13.80;23.80
32895;DHT22;19251;49.484;8.260;2023-04-01T07:11:29;13.80;24.00
32895;DHT22;19251;49.484;8.260;2023-04-01T07:16:51;13.80;24.30
32895;DHT22;19251;49.484;8.260;2023-04-01T07:21:56;13.80;24.20
32895;DHT22;19251;49.484;8.260;2023-04-01T07:27:02;13.80;24.00
32895;DHT22;19251;49.484;8.260;2023-04-01T07:37:28;13.90;23.90
32895;DHT22;19251;49.484;8.260;2023-04-01T07:53:05;14.10;23.90
32895;DHT22;19251;49.484;8.260;2023-04-01T08:03:26;14.20;23.90
32895;DHT22;19251;49.484;8.260;2023-04-01T08:13:46;14.30;24.10
32895;DHT22;19251;49.484;8.260;2023-04-01T08:19:15;14.30;24.20
32895;DHT22;19251;49.484;8.260;2023-04-01T08:24:29;14.30;24.20
32895;DHT22;19251;49.484;8.260;2023-04-01T08:34:56;14.50;25.00
32895;DHT22;19251;49.484;8.260;2023-04-01T08:40:02;14.60;24.40
32895;DHT22;19251;49.484;8.260;2023-04-01T08:45:21;14.70;24.40
32895;DHT22;19251;49.484;8.260;2023-04-01T08:50:47;14.90;24.40
32895;DHT22;19251;49.484;8.260;2023-04-01T08:56:01;14.90;24.40
32895;DHT22;19251;49.484;8.260;2023-04-01T09:42:33;15.40;23.80
32895;DHT22;19251;49.484;8.260;2023-04-01T09:48:00;15.50;23.90
32895;DHT22;19251;49.484;8.260;2023-04-01T10:19:49;16.10;23.30
32895;DHT22;19251;49.484;8.260;2023-04-01T10:25:35;16.10;23.00
32895;DHT22;19251;49.484;8.260;2023-04-01T10:30:43;16.10;23.00
32895;DHT22;19251;49.484;8.260;2023-04-01T11:23:44;16.80;21.60
32895;DHT22;19251;49.484;8.260;2023-04-01T11:34:39;16.70;21.20
32895;DHT22;19251;49.484;8.260;2023-04-01T11:45:14;16.80;20.60
32895;DHT22;19251;49.484;8.260;2023-04-01T12:11:21;16.80;19.60
32895;DHT22;19251;49.484;8.260;2023-04-01T12:16:47;16.80;19.80
32895;DHT22;19251;49.484;8.260;2023-04-01T12:32:35;16.90;20.10
32895;DHT22;19251;49.484;8.260;2023-04-01T12:42:51;17.00;19.60
32895;DHT22;19251;49.484;8.260;2023-04-01T13:03:40;17.30;20.00
32895;DHT22;19251;49.484;8.260;2023-04-01T13:08:52;17.40;19.40
32895;DHT22;19251;49.484;8.260;2023-04-01T13:19:37;16.90;19.60
32895;DHT22;19251;49.484;8.260;2023-04-01T13:35:05;16.90;19.50
32895;DHT22;19251;49.484;8.260;2023-04-01T13:45:29;17.10;19.20
32895;DHT22;19251;49.484;8.260;2023-04-01T14:01:06;17.10;19.20
32895;DHT22;19251;49.484;8.260;2023-04-01T14:11:48;17.00;18.70
32895;DHT22;19251;49.484;8.260;2023-04-01T14:17:06;16.90;18.80
32895;DHT22;19251;49.484;8.260;2023-04-01T14:22:22;17.00;18.70
32895;DHT22;19251;49.484;8.260;2023-04-01T14:28:10;17.20;18.80
32895;DHT22;19251;49.484;8.260;2023-04-01T14:43:12;17.70;18.50
32895;DHT22;19251;49.484;8.260;2023-04-01T14:48:36;17.90;18.00
32895;DHT22;19251;49.484;8.260;2023-04-01T14:53:41;17.90;17.90
32895;DHT22;19251;49.484;8.260;2023-04-01T14:58:50;17.60;17.50
32895;DHT22;19251;49.484;8.260;2023-04-01T15:04:06;17.60;17.60
32895;DHT22;19251;49.484;8.260;2023-04-01T15:25:09;19.60;15.10
32895;DHT22;19251;49.484;8.260;2023-04-01T15:30:20;19.80;14.60
32895;DHT22;19251;49.484;8.260;2023-04-01T15:51:17;19.80;12.90
32895;DHT22;19251;49.484;8.260;2023-04-01T16:01:42;19.50;12.90
32895;DHT22;19251;49.484;8.260;2023-04-01T16:22:24;18.20;14.40
32895;DHT22;19251;49.484;8.260;2023-04-01T16:27:42;17.80;14.70
32895;DHT22;19251;49.484;8.260;2023-04-01T16:32:53;17.70;15.00
32895;DHT22;19251;49.484;8.260;2023-04-01T16:43:13;17.60;15.00
32895;DHT22;19251;49.484;8.260;2023-04-01T16:48:20;17.40;15.00
32895;DHT22;19251;49.484;8.260;2023-04-01T16:53:43;17.30;15.00
32895;DHT22;19251;49.484;8.260;2023-04-01T16:58:56;17.10;15.20
32895;DHT22;19251;49.484;8.260;2023-04-01T17:19:34;16.50;15.90
32895;DHT22;19251;49.484;8.260;2023-04-01T17:40:29;16.00;16.80
32895;DHT22;19251;49.484;8.260;2023-04-01T17:46:20;15.60;17.30
32895;DHT22;19251;49.484;8.260;2023-04-01T18:06:41;15.20;17.70
32895;DHT22;19251;49.484;8.260;2023-04-01T18:21:59;15.10;18.10
32895;DHT22;19251;49.484;8.260;2023-04-01T18:32:14;15.10;18.30
32895;DHT22;19251;49.484;8.260;2023-04-01T18:37:22;15.00;18.60
32895;DHT22;19251;49.484;8.260;2023-04-01T18:42:36;14.90;18.60
32895;DHT22;19251;49.484;8.260;2023-04-01T18:47:43;14.90;18.80
32895;DHT22;19251;49.484;8.260;2023-04-01T18:52:47;14.80;18.90
32895;DHT22;19251;49.484;8.260;2023-04-01T18:57:54;14.80;19.10
32895;DHT22;19251;49.484;8.260;2023-04-01T19:03:10;14.80;19.20
32895;DHT22;19251;49.484;8.260;2023-04-01T19:13:38;14.80;19.30
32895;DHT22;19251;49.484;8.260;2023-04-01T19:29:35;14.80;19.90
32895;DHT22;19251;49.484;8.260;2023-04-01T19:45:38;14.60;20.20
32895;DHT22;19251;49.484;8.260;2023-04-01T19:50:50;14.40;20.20
32895;DHT22;19251;49.484;8.260;2023-04-01T19:56:07;14.50;20.60
32895;DHT22;19251;49.484;8.260;2023-04-01T20:01:15;14.30;21.00
32895;DHT22;19251;49.484;8.260;2023-04-01T20:16:43;14.30;21.50
32895;DHT22;19251;49.484;8.260;2023-04-01T20:21:50;14.20;21.30
32895;DHT22;19251;49.484;8.260;2023-04-01T20:26:59;14.30;21.40
32895;DHT22;19251;49.484;8.260;2023-04-01T20:52:18;14.50;21.40
32895;DHT22;19251;49.484;8.260;2023-04-01T21:24:03;14.50;21.60
32895;DHT22;19251;49.484;8.260;2023-04-01T22:01:08;14.50;21.90
32895;DHT22;19251;49.484;8.260;2023-04-01T22:21:24;14.50;22.00
32895;DHT22;19251;49.484;8.260;2023-04-01T22:32:08;14.60;22.20
32895;DHT22;19251;49.484;8.260;2023-04-01T22:42:21;14.50;22.20
32895;DHT22;19251;49.484;8.260;2023-04-01T22:52:40;14.50;22.30
32895;DHT22;19251;49.484;8.260;2023-04-01T22:57:54;14.60;22.50
32895;DHT22;19251;49.484;8.260;2023-04-01T23:03:14;14.50;22.40
32895;DHT22;19251;49.484;8.260;2023-04-01T23:13:41;14.50;22.60
32895;DHT22;19251;49.484;8.260;2023-04-01T23:19:00;14.50;22.50
32895;DHT22;19251;49.484;8.260;2023-04-01T23:24:21;14.40;22.50
32895;DHT22;19251;49.484;8.260;2023-04-01T23:29:28;14.40;22.70
32895;DHT22;19251;49.484;8.260;2023-04-01T23:34:34;14.40;22.70
32895;DHT22;19251;49.484;8.260;2023-04-01T23:39:38;14.50;22.80
32895;DHT22;19251;49.484;8.260;2023-04-01T23:44:41;14.40;22.80
32895;DHT22;19251;49.484;8.260;2023-04-01T23:49:46;14.40;22.90
32895;DHT22;19251;49.484;8.260;2023-04-01T23:54:52;14.20;23.20
